sensor_id;sensor_type;location;lat;lon;timestamp;P1;durP1;ratioP1;P2;durP2;ratioP2
22849;SDS011;11591;44.792;10.358;2022-07-03T00:00:41;13.50;;;5.00;;
22849;SDS011;11591;44.792;10.358;2022-07-03T00:03:07;10.30;;;4.32;;
22849;SDS011;11591;44.792;10.358;2022-07-03T00:05:33;13.10;;;4.05;;
22849;SDS011;11591;44.792;10.358;2022-07-03T00:08:00;13.40;;;4.13;;
22849;SDS011;11591;44.792;10.358;2022-07-03T00:10:25;9.77;;;4.50;;
22849;SDS011;11591;44.792;10.358;2022-07-03T00:12:51;12.32;;;4.40;;
22849;SDS011;11591;44.792;10.358;2022-07-03T00:15:17;17.58;;;5.88;;
22849;SDS011;11591;44.792;10.358;2022-07-03T00:17:43;9.40;;;4.28;;
22849;SDS011;11591;44.792;10.358;2022-07-03T00:20:09;8.52;;;4.15;;
22849;SDS011;11591;44.792;10.358;2022-07-03T00:22:36;7.30;;;4.20;;
22849;SDS011;11591;44.792;10.358;2022-07-03T00:25:07;8.98;;;4.85;;
22849;SDS011;11591;44.792;10.358;2022-07-03T00:27:35;11.45;;;4.40;;
22849;SDS011;11591;44.792;10.358;2022-07-03T00:30:04;8.88;;;4.30;;
22849;SDS011;11591;44.792;10.358;2022-07-03T00:32:33;6.43;;;4.05;;
22849;SDS011;11591;44.792;10.358;2022-07-03T00:35:02;7.85;;;4.53;;
22849;SDS011;11591;44.792;10.358;2022-07-03T00:37:28;10.07;;;4.45;;
22849;SDS011;11591;44.792;10.358;2022-07-03T00:39:55;8.60;;;3.88;;
22849;SDS011;11591;44.792;10.358;2022-07-03T00:42:22;8.52;;;4.18;;
22849;SDS011;11591;44.792;10.358;2022-07-03T00:44:51;13.80;;;4.80;;
22849;SDS011;11591;44.792;10.358;2022-07-03T00:47:22;13.23;;;4.38;;
22849;SDS011;11591;44.792;10.358;2022-07-03T00:49:53;11.90;;;4.50;;
22849;SDS011;11591;44.792;10.358;2022-07-03T00:52:21;7.15;;;4.03;;
22849;SDS011;11591;44.792;10.358;2022-07-03T00:54:52;12.13;;;4.80;;
22849;SDS011;11591;44.792;10.358;2022-07-03T00:57:20;9.50;;;4.38;;
22849;SDS011;11591;44.792;10.358;2022-07-03T00:59:47;16.60;;;4.10;;
22849;SDS011;11591;44.792;10.358;2022-07-03T01:02:27;12.90;;;4.75;;
22849;SDS011;11591;44.792;10.358;2022-07-03T01:18:53;7.05;;;4.07;;
22849;SDS011;11591;44.792;10.358;2022-07-03T01:26:45;9.52;;;3.47;;
22849;SDS011;11591;44.792;10.358;2022-07-03T01:29:18;8.73;;;4.13;;
22849;SDS011;11591;44.792;10.358;2022-07-03T01:31:50;6.97;;;4.30;;
22849;SDS011;11591;44.792;10.358;2022-07-03T01:34:19;8.73;;;3.90;;
22849;SDS011;11591;44.792;10.358;2022-07-03T01:36:47;6.43;;;4.40;;
22849;SDS011;11591;44.792;10.358;2022-07-03T01:39:18;6.80;;;3.90;;
22849;SDS011;11591;44.792;10.358;2022-07-03T01:41:47;12.80;;;6.15;;
22849;SDS011;11591;44.792;10.358;2022-07-03T01:44:15;9.95;;;5.95;;
22849;SDS011;11591;44.792;10.358;2022-07-03T01:46:42;12.77;;;6.30;;
22849;SDS011;11591;44.792;10.358;2022-07-03T01:49:11;12.80;;;6.35;;
22849;SDS011;11591;44.792;10.358;2022-07-03T01:51:39;13.65;;;6.97;;
22849;SDS011;11591;44.792;10.358;2022-07-03T01:54:07;11.23;;;6.00;;
22849;SDS011;11591;44.792;10.358;2022-07-03T01:56:34;11.73;;;5.13;;
22849;SDS011;11591;44.792;10.358;2022-07-03T01:59:00;8.15;;;4.80;;
22849;SDS011;11591;44.792;10.358;2022-07-03T02:04:09;11.10;;;4.88;;
22849;SDS011;11591;44.792;10.358;2022-07-03T02:12:27;9.93;;;4.13;;
22849;SDS011;11591;44.792;10.358;2022-07-03T02:15:03;9.32;;;4.57;;
22849;SDS011;11591;44.792;10.358;2022-07-03T02:17:37;8.35;;;4.05;;
22849;SDS011;11591;44.792;10.358;2022-07-03T02:20:07;9.93;;;4.72;;
22849;SDS011;11591;44.792;10.358;2022-07-03T02:22:39;11.45;;;4.55;;
22849;SDS011;11591;44.792;10.358;2022-07-03T02:25:08;7.90;;;3.90;;
22849;SDS011;11591;44.792;10.358;2022-07-03T02:27:41;8.07;;;4.05;;
22849;SDS011;11591;44.792;10.358;2022-07-03T02:30:09;14.07;;;4.40;;
22849;SDS011;11591;44.792;10.358;2022-07-03T02:32:38;12.15;;;4.30;;
22849;SDS011;11591;44.792;10.358;2022-07-03T02:35:17;9.70;;;4.30;;
22849;SDS011;11591;44.792;10.358;2022-07-03T02:43:19;11.13;;;4.22;;
22849;SDS011;11591;44.792;10.358;2022-07-03T02:46:15;10.38;;;4.22;;
22849;SDS011;11591;44.792;10.358;2022-07-03T02:49:20;11.57;;;4.38;;
22849;SDS011;11591;44.792;10.358;2022-07-03T02:54:52;11.95;;;4.53;;
22849;SDS011;11591;44.792;10.358;2022-07-03T02:57:20;9.30;;;4.40;;
22849;SDS011;11591;44.792;10.358;2022-07-03T03:00:00;16.08;;;4.28;;
22849;SDS011;11591;44.792;10.358;2022-07-03T03:05:13;7.97;;;4.03;;
22849;SDS011;11591;44.792;10.358;2022-07-03T03:10:36;8.80;;;3.70;;
22849;SDS011;11591;44.792;10.358;2022-07-03T03:13:04;7.43;;;4.00;;
22849;SDS011;11591;44.792;10.358;2022-07-03T03:15:35;12.15;;;4.47;;
22849;SDS011;11591;44.792;10.358;2022-07-03T03:18:03;10.85;;;4.38;;
22849;SDS011;11591;44.792;10.358;2022-07-03T03:20:34;10.02;;;4.53;;
22849;SDS011;11591;44.792;10.358;2022-07-03T03:25:45;11.18;;;4.55;;
22849;SDS011;11591;44.792;10.358;2022-07-03T03:28:11;8.13;;;4.20;;
22849;SDS011;11591;44.792;10.358;2022-07-03T03:30:38;6.90;;;4.25;;
22849;SDS011;11591;44.792;10.358;2022-07-03T03:33:05;8.05;;;4.40;;
22849;SDS011;11591;44.792;10.358;2022-07-03T03:35:40;8.45;;;4.22;;
22849;SDS011;11591;44.792;10.358;2022-07-03T03:38:06;11.13;;;4.03;;
22849;SDS011;11591;44.792;10.358;2022-07-03T03:40:32;8.52;;;4.70;;
22849;SDS011;11591;44.792;10.358;2022-07-03T03:42:59;7.43;;;3.97;;
22849;SDS011;11591;44.792;10.358;2022-07-03T03:45:25;11.70;;;3.95;;
22849;SDS011;11591;44.792;10.358;2022-07-03T03:47:51;9.05;;;3.97;;
22849;SDS011;11591;44.792;10.358;2022-07-03T03:50:18;7.15;;;3.95;;
22849;SDS011;11591;44.792;10.358;2022-07-03T03:52:44;8.30;;;3.80;;
22849;SDS011;11591;44.792;10.358;2022-07-03T03:55:10;4.38;;;3.58;;
22849;SDS011;11591;44.792;10.358;2022-07-03T03:57:36;7.30;;;3.70;;
22849;SDS011;11591;44.792;10.358;2022-07-03T04:00:03;6.32;;;3.80;;
22849;SDS011;11591;44.792;10.358;2022-07-03T04:02:37;7.85;;;3.75;;
22849;SDS011;11591;44.792;10.358;2022-07-03T04:05:04;5.88;;;3.47;;
22849;SDS011;11591;44.792;10.358;2022-07-03T04:07:30;6.90;;;3.55;;
22849;SDS011;11591;44.792;10.358;2022-07-03T04:09:56;6.57;;;3.90;;
22849;SDS011;11591;44.792;10.358;2022-07-03T04:12:22;5.90;;;3.40;;
22849;SDS011;11591;44.792;10.358;2022-07-03T04:14:47;7.72;;;4.03;;
22849;SDS011;11591;44.792;10.358;2022-07-03T04:17:13;7.00;;;3.55;;
22849;SDS011;11591;44.792;10.358;2022-07-03T04:19:39;6.45;;;3.63;;
22849;SDS011;11591;44.792;10.358;2022-07-03T04:22:05;6.30;;;3.45;;
22849;SDS011;11591;44.792;10.358;2022-07-03T04:24:34;7.03;;;3.40;;
22849;SDS011;11591;44.792;10.358;2022-07-03T04:27:03;7.00;;;3.33;;
22849;SDS011;11591;44.792;10.358;2022-07-03T04:29:29;9.35;;;3.90;;
22849;SDS011;11591;44.792;10.358;2022-07-03T04:31:55;7.15;;;3.38;;
22849;SDS011;11591;44.792;10.358;2022-07-03T04:34:21;5.65;;;3.83;;
22849;SDS011;11591;44.792;10.358;2022-07-03T04:36:46;7.18;;;3.60;;
22849;SDS011;11591;44.792;10.358;2022-07-03T04:39:12;4.95;;;3.40;;
22849;SDS011;11591;44.792;10.358;2022-07-03T04:41:38;8.40;;;3.42;;
22849;SDS011;11591;44.792;10.358;2022-07-03T04:44:04;5.65;;;3.30;;
22849;SDS011;11591;44.792;10.358;2022-07-03T04:46:29;3.47;;;2.88;;
22849;SDS011;11591;44.792;10.358;2022-07-03T04:48:55;9.15;;;3.60;;
22849;SDS011;11591;44.792;10.358;2022-07-03T04:51:21;7.70;;;3.05;;
22849;SDS011;11591;44.792;10.358;2022-07-03T04:53:47;7.93;;;3.50;;
22849;SDS011;11591;44.792;10.358;2022-07-03T04:56:13;6.15;;;3.15;;
22849;SDS011;11591;44.792;10.358;2022-07-03T04:58:39;5.15;;;3.25;;
22849;SDS011;11591;44.792;10.358;2022-07-03T05:01:04;7.15;;;3.58;;
22849;SDS011;11591;44.792;10.358;2022-07-03T05:03:30;8.55;;;3.40;;
22849;SDS011;11591;44.792;10.358;2022-07-03T05:05:57;7.22;;;3.40;;
22849;SDS011;11591;44.792;10.358;2022-07-03T05:08:23;8.32;;;3.30;;
22849;SDS011;11591;44.792;10.358;2022-07-03T05:10:49;6.32;;;3.50;;
22849;SDS011;11591;44.792;10.358;2022-07-03T05:13:15;6.10;;;3.58;;
22849;SDS011;11591;44.792;10.358;2022-07-03T05:15:41;7.45;;;3.33;;
22849;SDS011;11591;44.792;10.358;2022-07-03T05:18:07;8.30;;;3.20;;
22849;SDS011;11591;44.792;10.358;2022-07-03T05:20:33;5.55;;;3.38;;
22849;SDS011;11591;44.792;10.358;2022-07-03T05:22:59;5.45;;;3.20;;
22849;SDS011;11591;44.792;10.358;2022-07-03T05:25:26;7.53;;;3.20;;
22849;SDS011;11591;44.792;10.358;2022-07-03T05:27:54;7.18;;;3.22;;
22849;SDS011;11591;44.792;10.358;2022-07-03T05:30:21;10.77;;;3.60;;
22849;SDS011;11591;44.792;10.358;2022-07-03T05:32:48;5.03;;;3.55;;
22849;SDS011;11591;44.792;10.358;2022-07-03T05:35:14;9.77;;;3.67;;
22849;SDS011;11591;44.792;10.358;2022-07-03T05:37:40;9.90;;;3.75;;
22849;SDS011;11591;44.792;10.358;2022-07-03T05:40:06;5.10;;;3.45;;
22849;SDS011;11591;44.792;10.358;2022-07-03T05:42:32;8.20;;;3.53;;
22849;SDS011;11591;44.792;10.358;2022-07-03T05:44:58;8.27;;;3.83;;
22849;SDS011;11591;44.792;10.358;2022-07-03T05:47:24;9.10;;;3.72;;
22849;SDS011;11591;44.792;10.358;2022-07-03T05:49:50;7.18;;;3.50;;
22849;SDS011;11591;44.792;10.358;2022-07-03T05:52:16;6.13;;;3.45;;
22849;SDS011;11591;44.792;10.358;2022-07-03T05:54:42;6.15;;;3.38;;
22849;SDS011;11591;44.792;10.358;2022-07-03T05:57:08;6.82;;;4.10;;
22849;SDS011;11591;44.792;10.358;2022-07-03T05:59:34;7.88;;;3.60;;
22849;SDS011;11591;44.792;10.358;2022-07-03T06:02:00;11.07;;;3.80;;
22849;SDS011;11591;44.792;10.358;2022-07-03T06:04:26;6.40;;;3.78;;
22849;SDS011;11591;44.792;10.358;2022-07-03T06:06:52;10.13;;;4.47;;
22849;SDS011;11591;44.792;10.358;2022-07-03T06:09:19;9.65;;;3.80;;
22849;SDS011;11591;44.792;10.358;2022-07-03T06:11:45;12.25;;;3.97;;
22849;SDS011;11591;44.792;10.358;2022-07-03T06:14:12;4.53;;;4.00;;
22849;SDS011;11591;44.792;10.358;2022-07-03T06:16:39;6.25;;;3.80;;
22849;SDS011;11591;44.792;10.358;2022-07-03T06:19:05;5.78;;;3.75;;
22849;SDS011;11591;44.792;10.358;2022-07-03T06:21:31;5.60;;;3.88;;
22849;SDS011;11591;44.792;10.358;2022-07-03T06:23:57;10.18;;;4.35;;
22849;SDS011;11591;44.792;10.358;2022-07-03T06:26:23;7.90;;;4.28;;
22849;SDS011;11591;44.792;10.358;2022-07-03T06:28:49;10.32;;;4.45;;
22849;SDS011;11591;44.792;10.358;2022-07-03T06:31:14;8.35;;;4.57;;
22849;SDS011;11591;44.792;10.358;2022-07-03T06:33:40;8.77;;;4.47;;
22849;SDS011;11591;44.792;10.358;2022-07-03T06:36:06;11.00;;;4.35;;
22849;SDS011;11591;44.792;10.358;2022-07-03T06:38:32;12.13;;;4.60;;
22849;SDS011;11591;44.792;10.358;2022-07-03T06:40:58;14.18;;;4.70;;
22849;SDS011;11591;44.792;10.358;2022-07-03T06:43:23;8.25;;;4.43;;
22849;SDS011;11591;44.792;10.358;2022-07-03T06:45:49;8.18;;;4.00;;
22849;SDS011;11591;44.792;10.358;2022-07-03T06:48:15;7.78;;;4.30;;
22849;SDS011;11591;44.792;10.358;2022-07-03T06:50:41;6.10;;;4.30;;
22849;SDS011;11591;44.792;10.358;2022-07-03T06:53:07;8.02;;;4.32;;
22849;SDS011;11591;44.792;10.358;2022-07-03T06:55:32;21.08;;;12.35;;
22849;SDS011;11591;44.792;10.358;2022-07-03T06:57:58;10.02;;;5.93;;
22849;SDS011;11591;44.792;10.358;2022-07-03T07:00:24;13.55;;;5.18;;
22849;SDS011;11591;44.792;10.358;2022-07-03T07:02:50;9.85;;;4.55;;
22849;SDS011;11591;44.792;10.358;2022-07-03T07:05:16;13.30;;;4.93;;
22849;SDS011;11591;44.792;10.358;2022-07-03T07:07:41;6.47;;;4.70;;
22849;SDS011;11591;44.792;10.358;2022-07-03T07:10:07;22.55;;;4.72;;
22849;SDS011;11591;44.792;10.358;2022-07-03T07:12:33;11.13;;;5.10;;
22849;SDS011;11591;44.792;10.358;2022-07-03T07:14:59;6.85;;;4.65;;
22849;SDS011;11591;44.792;10.358;2022-07-03T07:17:25;14.13;;;5.30;;
22849;SDS011;11591;44.792;10.358;2022-07-03T07:19:51;10.25;;;5.35;;
22849;SDS011;11591;44.792;10.358;2022-07-03T07:22:16;9.00;;;4.70;;
22849;SDS011;11591;44.792;10.358;2022-07-03T07:24:42;11.93;;;6.03;;
22849;SDS011;11591;44.792;10.358;2022-07-03T07:27:08;10.90;;;5.80;;
22849;SDS011;11591;44.792;10.358;2022-07-03T07:29:34;11.07;;;6.15;;
22849;SDS011;11591;44.792;10.358;2022-07-03T07:31:59;14.77;;;5.95;;
22849;SDS011;11591;44.792;10.358;2022-07-03T07:34:25;11.25;;;5.78;;
22849;SDS011;11591;44.792;10.358;2022-07-03T07:36:51;9.65;;;6.03;;
22849;SDS011;11591;44.792;10.358;2022-07-03T07:39:17;11.02;;;5.35;;
22849;SDS011;11591;44.792;10.358;2022-07-03T07:41:43;19.10;;;5.90;;
22849;SDS011;11591;44.792;10.358;2022-07-03T07:44:08;12.50;;;6.15;;
22849;SDS011;11591;44.792;10.358;2022-07-03T07:49:43;9.05;;;5.97;;
22849;SDS011;11591;44.792;10.358;2022-07-03T07:52:09;14.88;;;5.65;;
22849;SDS011;11591;44.792;10.358;2022-07-03T07:54:35;10.40;;;5.93;;
22849;SDS011;11591;44.792;10.358;2022-07-03T07:57:01;14.80;;;6.30;;
22849;SDS011;11591;44.792;10.358;2022-07-03T07:59:27;15.60;;;5.70;;
22849;SDS011;11591;44.792;10.358;2022-07-03T08:01:52;10.48;;;6.13;;
22849;SDS011;11591;44.792;10.358;2022-07-03T08:04:37;10.60;;;5.35;;
22849;SDS011;11591;44.792;10.358;2022-07-03T08:07:21;10.55;;;5.57;;
22849;SDS011;11591;44.792;10.358;2022-07-03T08:09:46;9.13;;;4.75;;
22849;SDS011;11591;44.792;10.358;2022-07-03T08:12:12;7.63;;;5.05;;
22849;SDS011;11591;44.792;10.358;2022-07-03T08:14:38;11.68;;;5.93;;
22849;SDS011;11591;44.792;10.358;2022-07-03T08:17:05;9.55;;;5.10;;
22849;SDS011;11591;44.792;10.358;2022-07-03T08:19:31;8.65;;;5.30;;
22849;SDS011;11591;44.792;10.358;2022-07-03T08:21:57;12.88;;;5.95;;
22849;SDS011;11591;44.792;10.358;2022-07-03T08:24:23;13.57;;;6.72;;
22849;SDS011;11591;44.792;10.358;2022-07-03T08:26:48;10.73;;;5.78;;
22849;SDS011;11591;44.792;10.358;2022-07-03T08:29:14;11.93;;;5.82;;
22849;SDS011;11591;44.792;10.358;2022-07-03T08:31:40;10.77;;;5.28;;
22849;SDS011;11591;44.792;10.358;2022-07-03T08:34:06;13.15;;;6.10;;
22849;SDS011;11591;44.792;10.358;2022-07-03T08:36:33;14.73;;;5.72;;
22849;SDS011;11591;44.792;10.358;2022-07-03T08:38:59;11.85;;;5.82;;
22849;SDS011;11591;44.792;10.358;2022-07-03T08:41:25;12.63;;;6.28;;
22849;SDS011;11591;44.792;10.358;2022-07-03T08:43:52;9.30;;;6.13;;
22849;SDS011;11591;44.792;10.358;2022-07-03T08:46:20;15.15;;;6.30;;
22849;SDS011;11591;44.792;10.358;2022-07-03T08:48:46;11.13;;;6.03;;
22849;SDS011;11591;44.792;10.358;2022-07-03T08:51:13;16.60;;;6.00;;
22849;SDS011;11591;44.792;10.358;2022-07-03T08:53:39;12.43;;;6.88;;
22849;SDS011;11591;44.792;10.358;2022-07-03T08:56:05;17.17;;;7.57;;
22849;SDS011;11591;44.792;10.358;2022-07-03T08:58:34;19.58;;;9.02;;
22849;SDS011;11591;44.792;10.358;2022-07-03T09:01:00;11.63;;;5.90;;
22849;SDS011;11591;44.792;10.358;2022-07-03T09:03:27;10.15;;;5.72;;
22849;SDS011;11591;44.792;10.358;2022-07-03T09:05:54;12.82;;;5.82;;
22849;SDS011;11591;44.792;10.358;2022-07-03T09:08:22;22.25;;;12.55;;
22849;SDS011;11591;44.792;10.358;2022-07-03T09:10:49;14.73;;;7.45;;
22849;SDS011;11591;44.792;10.358;2022-07-03T09:13:15;14.88;;;6.72;;
22849;SDS011;11591;44.792;10.358;2022-07-03T09:15:40;10.75;;;5.40;;
22849;SDS011;11591;44.792;10.358;2022-07-03T09:18:07;8.35;;;4.90;;
22849;SDS011;11591;44.792;10.358;2022-07-03T09:20:37;14.35;;;7.97;;
22849;SDS011;11591;44.792;10.358;2022-07-03T09:23:40;9.90;;;4.88;;
22849;SDS011;11591;44.792;10.358;2022-07-03T09:26:02;13.07;;;6.63;;
22849;SDS011;11591;44.792;10.358;2022-07-03T09:28:48;12.43;;;4.82;;
22849;SDS011;11591;44.792;10.358;2022-07-03T09:31:20;11.77;;;4.95;;
22849;SDS011;11591;44.792;10.358;2022-07-03T09:41:52;10.65;;;4.88;;
22849;SDS011;11591;44.792;10.358;2022-07-03T09:44:43;15.45;;;5.28;;
22849;SDS011;11591;44.792;10.358;2022-07-03T09:47:18;10.05;;;4.47;;
22849;SDS011;11591;44.792;10.358;2022-07-03T09:49:58;8.45;;;4.70;;
22849;SDS011;11591;44.792;10.358;2022-07-03T09:52:29;8.38;;;4.70;;
22849;SDS011;11591;44.792;10.358;2022-07-03T09:54:59;11.00;;;5.00;;
22849;SDS011;11591;44.792;10.358;2022-07-03T10:05:40;11.68;;;5.20;;
22849;SDS011;11591;44.792;10.358;2022-07-03T10:08:11;16.15;;;5.32;;
22849;SDS011;11591;44.792;10.358;2022-07-03T10:10:39;12.80;;;5.22;;
22849;SDS011;11591;44.792;10.358;2022-07-03T10:13:08;15.65;;;4.93;;
22849;SDS011;11591;44.792;10.358;2022-07-03T10:15:35;7.22;;;4.88;;
22849;SDS011;11591;44.792;10.358;2022-07-03T10:18:04;8.98;;;4.93;;
22849;SDS011;11591;44.792;10.358;2022-07-03T10:22:59;7.38;;;4.10;;
22849;SDS011;11591;44.792;10.358;2022-07-03T10:25:27;11.02;;;4.80;;
22849;SDS011;11591;44.792;10.358;2022-07-03T10:27:53;11.18;;;4.70;;
22849;SDS011;11591;44.792;10.358;2022-07-03T10:30:21;12.73;;;4.90;;
22849;SDS011;11591;44.792;10.358;2022-07-03T10:32:49;14.18;;;4.63;;
22849;SDS011;11591;44.792;10.358;2022-07-03T10:36:18;8.93;;;4.53;;
22849;SDS011;11591;44.792;10.358;2022-07-03T10:38:18;6.25;;;4.40;;
22849;SDS011;11591;44.792;10.358;2022-07-03T10:44:12;8.93;;;4.80;;
22849;SDS011;11591;44.792;10.358;2022-07-03T10:46:57;9.25;;;5.20;;
22849;SDS011;11591;44.792;10.358;2022-07-03T10:49:23;7.63;;;4.50;;
22849;SDS011;11591;44.792;10.358;2022-07-03T10:54:34;10.25;;;5.28;;
22849;SDS011;11591;44.792;10.358;2022-07-03T10:57:14;10.80;;;5.22;;
22849;SDS011;11591;44.792;10.358;2022-07-03T11:07:27;12.23;;;5.80;;
22849;SDS011;11591;44.792;10.358;2022-07-03T11:15:48;9.32;;;5.03;;
22849;SDS011;11591;44.792;10.358;2022-07-03T11:18:16;8.32;;;4.68;;
22849;SDS011;11591;44.792;10.358;2022-07-03T11:24:19;11.48;;;5.05;;
22849;SDS011;11591;44.792;10.358;2022-07-03T11:27:17;11.05;;;4.80;;
22849;SDS011;11591;44.792;10.358;2022-07-03T11:29:48;12.23;;;4.63;;
22849;SDS011;11591;44.792;10.358;2022-07-03T11:35:59;7.72;;;4.70;;
22849;SDS011;11591;44.792;10.358;2022-07-03T11:38:17;7.25;;;4.93;;
22849;SDS011;11591;44.792;10.358;2022-07-03T11:40:47;7.35;;;4.88;;
22849;SDS011;11591;44.792;10.358;2022-07-03T11:43:15;9.85;;;4.80;;
22849;SDS011;11591;44.792;10.358;2022-07-03T11:45:41;11.07;;;5.10;;
22849;SDS011;11591;44.792;10.358;2022-07-03T11:48:13;16.38;;;8.18;;
22849;SDS011;11591;44.792;10.358;2022-07-03T11:50:43;10.15;;;6.13;;
22849;SDS011;11591;44.792;10.358;2022-07-03T11:55:50;14.55;;;6.00;;
22849;SDS011;11591;44.792;10.358;2022-07-03T11:58:18;9.60;;;6.18;;
22849;SDS011;11591;44.792;10.358;2022-07-03T12:00:44;10.52;;;7.03;;
22849;SDS011;11591;44.792;10.358;2022-07-03T12:03:14;19.15;;;4.82;;
22849;SDS011;11591;44.792;10.358;2022-07-03T12:05:53;9.43;;;4.57;;
22849;SDS011;11591;44.792;10.358;2022-07-03T12:08:27;11.38;;;4.95;;
22849;SDS011;11591;44.792;10.358;2022-07-03T12:10:59;11.75;;;5.05;;
22849;SDS011;11591;44.792;10.358;2022-07-03T12:13:27;18.63;;;11.48;;
22849;SDS011;11591;44.792;10.358;2022-07-03T12:16:00;14.15;;;8.85;;
22849;SDS011;11591;44.792;10.358;2022-07-03T12:21:18;7.38;;;4.57;;
22849;SDS011;11591;44.792;10.358;2022-07-03T12:23:49;11.95;;;4.82;;
22849;SDS011;11591;44.792;10.358;2022-07-03T12:26:34;6.72;;;4.22;;
22849;SDS011;11591;44.792;10.358;2022-07-03T12:29:02;6.63;;;4.28;;
22849;SDS011;11591;44.792;10.358;2022-07-03T12:31:30;10.35;;;4.28;;
22849;SDS011;11591;44.792;10.358;2022-07-03T12:33:57;6.82;;;3.92;;
22849;SDS011;11591;44.792;10.358;2022-07-03T12:36:24;6.03;;;4.40;;
22849;SDS011;11591;44.792;10.358;2022-07-03T12:38:54;12.13;;;4.30;;
22849;SDS011;11591;44.792;10.358;2022-07-03T12:41:21;9.40;;;4.25;;
22849;SDS011;11591;44.792;10.358;2022-07-03T12:43:49;11.45;;;4.07;;
22849;SDS011;11591;44.792;10.358;2022-07-03T12:49:09;7.93;;;4.45;;
22849;SDS011;11591;44.792;10.358;2022-07-03T12:51:40;8.43;;;4.15;;
22849;SDS011;11591;44.792;10.358;2022-07-03T12:54:08;11.63;;;4.97;;
22849;SDS011;11591;44.792;10.358;2022-07-03T12:57:04;8.05;;;5.55;;
22849;SDS011;11591;44.792;10.358;2022-07-03T13:02:45;10.60;;;5.50;;
22849;SDS011;11591;44.792;10.358;2022-07-03T13:05:20;6.10;;;4.43;;
22849;SDS011;11591;44.792;10.358;2022-07-03T13:07:51;11.50;;;6.28;;
22849;SDS011;11591;44.792;10.358;2022-07-03T13:10:19;6.53;;;4.60;;
22849;SDS011;11591;44.792;10.358;2022-07-03T13:15:18;8.25;;;5.20;;
22849;SDS011;11591;44.792;10.358;2022-07-03T13:22:54;9.50;;;4.75;;
22849;SDS011;11591;44.792;10.358;2022-07-03T13:25:21;10.18;;;3.60;;
22849;SDS011;11591;44.792;10.358;2022-07-03T13:27:48;8.32;;;4.60;;
22849;SDS011;11591;44.792;10.358;2022-07-03T13:30:14;10.02;;;6.18;;
22849;SDS011;11591;44.792;10.358;2022-07-03T13:32:41;8.45;;;4.97;;
22849;SDS011;11591;44.792;10.358;2022-07-03T13:35:08;7.20;;;4.00;;
22849;SDS011;11591;44.792;10.358;2022-07-03T13:37:34;7.45;;;3.95;;
22849;SDS011;11591;44.792;10.358;2022-07-03T13:40:01;8.38;;;3.67;;
22849;SDS011;11591;44.792;10.358;2022-07-03T13:42:28;4.72;;;3.83;;
22849;SDS011;11591;44.792;10.358;2022-07-03T13:44:54;8.50;;;3.58;;
22849;SDS011;11591;44.792;10.358;2022-07-03T13:47:20;5.50;;;3.60;;
22849;SDS011;11591;44.792;10.358;2022-07-03T13:49:46;6.47;;;4.25;;
22849;SDS011;11591;44.792;10.358;2022-07-03T13:52:12;5.20;;;3.55;;
22849;SDS011;11591;44.792;10.358;2022-07-03T13:54:37;8.88;;;3.40;;
22849;SDS011;11591;44.792;10.358;2022-07-03T13:57:03;5.60;;;2.97;;
22849;SDS011;11591;44.792;10.358;2022-07-03T13:59:30;6.85;;;3.38;;
22849;SDS011;11591;44.792;10.358;2022-07-03T14:01:58;10.18;;;3.53;;
22849;SDS011;11591;44.792;10.358;2022-07-03T14:04:25;4.32;;;3.60;;
22849;SDS011;11591;44.792;10.358;2022-07-03T14:06:51;8.30;;;3.63;;
22849;SDS011;11591;44.792;10.358;2022-07-03T14:09:17;6.65;;;3.67;;
22849;SDS011;11591;44.792;10.358;2022-07-03T14:11:43;5.97;;;3.33;;
22849;SDS011;11591;44.792;10.358;2022-07-03T14:14:09;4.55;;;3.33;;
22849;SDS011;11591;44.792;10.358;2022-07-03T14:16:35;5.75;;;3.83;;
22849;SDS011;11591;44.792;10.358;2022-07-03T14:19:02;6.82;;;5.47;;
22849;SDS011;11591;44.792;10.358;2022-07-03T14:21:30;8.10;;;3.45;;
22849;SDS011;11591;44.792;10.358;2022-07-03T14:23:57;6.13;;;3.28;;
22849;SDS011;11591;44.792;10.358;2022-07-03T14:26:23;9.35;;;3.50;;
22849;SDS011;11591;44.792;10.358;2022-07-03T14:29:07;5.45;;;3.00;;
22849;SDS011;11591;44.792;10.358;2022-07-03T14:31:52;10.30;;;3.03;;
22849;SDS011;11591;44.792;10.358;2022-07-03T14:34:38;4.43;;;2.85;;
22849;SDS011;11591;44.792;10.358;2022-07-03T14:37:04;4.13;;;2.70;;
22849;SDS011;11591;44.792;10.358;2022-07-03T14:39:31;8.75;;;3.25;;
22849;SDS011;11591;44.792;10.358;2022-07-03T14:41:57;5.13;;;2.80;;
22849;SDS011;11591;44.792;10.358;2022-07-03T14:44:23;9.27;;;3.20;;
22849;SDS011;11591;44.792;10.358;2022-07-03T14:46:51;4.38;;;2.80;;
22849;SDS011;11591;44.792;10.358;2022-07-03T14:49:17;7.95;;;3.50;;
22849;SDS011;11591;44.792;10.358;2022-07-03T14:51:44;9.23;;;3.03;;
22849;SDS011;11591;44.792;10.358;2022-07-03T14:54:10;3.05;;;2.60;;
22849;SDS011;11591;44.792;10.358;2022-07-03T14:56:39;7.03;;;3.22;;
22849;SDS011;11591;44.792;10.358;2022-07-03T14:59:08;7.85;;;2.90;;
22849;SDS011;11591;44.792;10.358;2022-07-03T15:01:40;5.40;;;3.03;;
22849;SDS011;11591;44.792;10.358;2022-07-03T15:07:09;5.32;;;2.95;;
22849;SDS011;11591;44.792;10.358;2022-07-03T15:09:37;5.15;;;2.88;;
22849;SDS011;11591;44.792;10.358;2022-07-03T15:12:11;5.43;;;3.17;;
22849;SDS011;11591;44.792;10.358;2022-07-03T15:14:52;6.97;;;2.90;;
22849;SDS011;11591;44.792;10.358;2022-07-03T15:17:20;10.05;;;2.67;;
22849;SDS011;11591;44.792;10.358;2022-07-03T15:19:47;6.57;;;2.67;;
22849;SDS011;11591;44.792;10.358;2022-07-03T15:22:14;5.40;;;2.70;;
22849;SDS011;11591;44.792;10.358;2022-07-03T15:24:40;6.63;;;2.90;;
22849;SDS011;11591;44.792;10.358;2022-07-03T15:27:06;3.63;;;2.83;;
22849;SDS011;11591;44.792;10.358;2022-07-03T15:29:36;3.22;;;2.42;;
22849;SDS011;11591;44.792;10.358;2022-07-03T15:32:03;6.43;;;3.25;;
22849;SDS011;11591;44.792;10.358;2022-07-03T15:34:29;3.97;;;2.90;;
22849;SDS011;11591;44.792;10.358;2022-07-03T15:37:05;7.68;;;2.88;;
22849;SDS011;11591;44.792;10.358;2022-07-03T15:44:52;4.80;;;2.85;;
22849;SDS011;11591;44.792;10.358;2022-07-03T15:47:50;6.03;;;2.95;;
22849;SDS011;11591;44.792;10.358;2022-07-03T15:50:46;8.20;;;3.13;;
22849;SDS011;11591;44.792;10.358;2022-07-03T15:53:21;9.35;;;3.05;;
22849;SDS011;11591;44.792;10.358;2022-07-03T15:55:54;7.80;;;2.80;;
22849;SDS011;11591;44.792;10.358;2022-07-03T15:58:28;7.28;;;2.83;;
22849;SDS011;11591;44.792;10.358;2022-07-03T16:00:58;4.40;;;2.90;;
22849;SDS011;11591;44.792;10.358;2022-07-03T16:03:58;6.70;;;2.45;;
22849;SDS011;11591;44.792;10.358;2022-07-03T16:06:27;4.97;;;2.88;;
22849;SDS011;11591;44.792;10.358;2022-07-03T16:08:55;5.05;;;2.67;;
22849;SDS011;11591;44.792;10.358;2022-07-03T16:11:21;7.03;;;3.20;;
22849;SDS011;11591;44.792;10.358;2022-07-03T16:13:48;7.07;;;2.92;;
22849;SDS011;11591;44.792;10.358;2022-07-03T16:16:18;8.70;;;3.80;;
22849;SDS011;11591;44.792;10.358;2022-07-03T16:18:46;7.60;;;3.90;;
22849;SDS011;11591;44.792;10.358;2022-07-03T16:21:15;4.93;;;2.90;;
22849;SDS011;11591;44.792;10.358;2022-07-03T16:23:43;7.72;;;3.20;;
22849;SDS011;11591;44.792;10.358;2022-07-03T16:26:10;6.85;;;3.05;;
22849;SDS011;11591;44.792;10.358;2022-07-03T16:28:38;4.75;;;3.08;;
22849;SDS011;11591;44.792;10.358;2022-07-03T16:31:04;8.02;;;3.40;;
22849;SDS011;11591;44.792;10.358;2022-07-03T16:33:32;10.13;;;3.20;;
22849;SDS011;11591;44.792;10.358;2022-07-03T16:36:00;10.25;;;3.42;;
22849;SDS011;11591;44.792;10.358;2022-07-03T16:38:38;5.10;;;2.90;;